VRMG

Gan International Airport

Gan, Maldives
TAF VRMG 181100Z 1812/1918 15009KT 9999 FEW018 TEMPO 1812/1818 FEW018CB
Issued Valid From Valid To
Jun-18 @ 11:00 UTC
(2 hours ago)
Jun-18 @ 12:00 UTC
(an hour ago)
Jun-19 @ 18:00 UTC
(-1 days ago)
Jun-18 @ 12:00 to Jun-19 @ 18:00
TAF VRMG 181100Z 1812/1918 15009KT 9999 FEW018
Wind Visibility Clouds
150° at 9 knots 10,000+ meters
  • Few at 1,800' AGL
Temporary Jun-18 @ 12:00 to Jun-18 @ 18:00
TEMPO 1812/1818 FEW018CB
Clouds
  • Few at 1,800' AGL
TAF VRMG 181100Z 1812/1918 15009KT 9999 FEW018 TEMPO 1812/1818 FEW018CB
Issued Jun-18 @ 11:00 UTC
(2 hours ago)
Valid From Jun-18 @ 12:00 UTC
(an hour ago)
Valid To Jun-19 @ 18:00 UTC
(-1 days ago)
Jun-18 @ 12:00 - Jun-19 @ 18:00
Wind Visibility
150° at 9 knots 10,000+ meters
Clouds
  • Few at 1,800' AGL
Temporary Jun-18 @ 12:00 - Jun-18 @ 18:00
Clouds
  • Few at 1,800' AGL